sensor_id;sensor_type;location;lat;lon;timestamp;P1;durP1;ratioP1;P2;durP2;ratioP2
7989;SDS011;4040;42.848;23.034;2022-11-20T00:05:31;5.28;;;2.33;;
7989;SDS011;4040;42.848;23.034;2022-11-20T00:11:22;4.90;;;1.92;;
7989;SDS011;4040;42.848;23.034;2022-11-20T00:17:11;3.15;;;2.20;;
7989;SDS011;4040;42.848;23.034;2022-11-20T00:23:00;1.83;;;1.60;;
7989;SDS011;4040;42.848;23.034;2022-11-20T00:28:50;2.60;;;1.73;;
7989;SDS011;4040;42.848;23.034;2022-11-20T00:34:40;2.97;;;2.05;;
7989;SDS011;4040;42.848;23.034;2022-11-20T00:40:29;3.75;;;1.98;;
7989;SDS011;4040;42.848;23.034;2022-11-20T00:46:20;2.80;;;1.80;;
7989;SDS011;4040;42.848;23.034;2022-11-20T00:52:09;1.98;;;1.52;;
7989;SDS011;4040;42.848;23.034;2022-11-20T00:57:58;1.60;;;1.33;;
7989;SDS011;4040;42.848;23.034;2022-11-20T01:03:49;2.10;;;1.48;;
7989;SDS011;4040;42.848;23.034;2022-11-20T01:09:39;3.47;;;1.98;;
7989;SDS011;4040;42.848;23.034;2022-11-20T01:19:11;2.92;;;1.60;;
7989;SDS011;4040;42.848;23.034;2022-11-20T01:25:01;4.93;;;1.67;;
7989;SDS011;4040;42.848;23.034;2022-11-20T01:30:50;2.35;;;1.35;;
7989;SDS011;4040;42.848;23.034;2022-11-20T01:36:40;3.92;;;1.60;;
7989;SDS011;4040;42.848;23.034;2022-11-20T01:42:29;2.30;;;1.52;;
7989;SDS011;4040;42.848;23.034;2022-11-20T01:48:37;2.25;;;1.33;;
7989;SDS011;4040;42.848;23.034;2022-11-20T01:54:33;2.83;;;1.33;;
7989;SDS011;4040;42.848;23.034;2022-11-20T02:00:26;3.72;;;1.50;;
7989;SDS011;4040;42.848;23.034;2022-11-20T02:06:16;1.98;;;1.20;;
7989;SDS011;4040;42.848;23.034;2022-11-20T02:12:13;5.13;;;1.30;;
7989;SDS011;4040;42.848;23.034;2022-11-20T02:22:19;4.30;;;1.60;;
7989;SDS011;4040;42.848;23.034;2022-11-20T02:28:13;2.28;;;1.80;;
7989;SDS011;4040;42.848;23.034;2022-11-20T02:34:03;1.48;;;1.30;;
7989;SDS011;4040;42.848;23.034;2022-11-20T02:39:51;1.60;;;1.23;;
7989;SDS011;4040;42.848;23.034;2022-11-20T02:45:42;2.53;;;1.35;;
7989;SDS011;4040;42.848;23.034;2022-11-20T02:51:30;2.80;;;1.90;;
7989;SDS011;4040;42.848;23.034;2022-11-20T02:57:19;3.28;;;1.60;;
7989;SDS011;4040;42.848;23.034;2022-11-20T03:03:09;4.28;;;2.10;;
7989;SDS011;4040;42.848;23.034;2022-11-20T03:08:57;6.60;;;2.88;;
7989;SDS011;4040;42.848;23.034;2022-11-20T03:14:46;4.55;;;2.70;;
7989;SDS011;4040;42.848;23.034;2022-11-20T03:24:58;3.53;;;2.60;;
7989;SDS011;4040;42.848;23.034;2022-11-20T03:30:47;3.17;;;1.80;;
7989;SDS011;4040;42.848;23.034;2022-11-20T03:36:37;3.40;;;2.10;;
7989;SDS011;4040;42.848;23.034;2022-11-20T03:42:27;2.00;;;1.30;;
7989;SDS011;4040;42.848;23.034;2022-11-20T03:48:34;2.97;;;1.20;;
7989;SDS011;4040;42.848;23.034;2022-11-20T03:54:23;2.27;;;1.90;;
7989;SDS011;4040;42.848;23.034;2022-11-20T04:00:13;1.95;;;1.40;;
7989;SDS011;4040;42.848;23.034;2022-11-20T04:06:04;3.78;;;2.17;;
7989;SDS011;4040;42.848;23.034;2022-11-20T04:11:53;8.77;;;5.10;;
7989;SDS011;4040;42.848;23.034;2022-11-20T04:17:43;5.80;;;4.90;;
7989;SDS011;4040;42.848;23.034;2022-11-20T04:27:53;3.50;;;1.93;;
7989;SDS011;4040;42.848;23.034;2022-11-20T04:33:44;4.10;;;2.10;;
7989;SDS011;4040;42.848;23.034;2022-11-20T04:39:33;7.00;;;1.63;;
7989;SDS011;4040;42.848;23.034;2022-11-20T04:45:32;3.75;;;1.60;;
7989;SDS011;4040;42.848;23.034;2022-11-20T04:51:22;2.67;;;1.60;;
7989;SDS011;4040;42.848;23.034;2022-11-20T04:57:12;5.40;;;3.33;;
7989;SDS011;4040;42.848;23.034;2022-11-20T05:03:02;4.38;;;2.45;;
7989;SDS011;4040;42.848;23.034;2022-11-20T05:08:53;1.88;;;1.30;;
7989;SDS011;4040;42.848;23.034;2022-11-20T05:14:41;2.70;;;1.67;;
7989;SDS011;4040;42.848;23.034;2022-11-20T05:20:30;3.17;;;1.48;;
7989;SDS011;4040;42.848;23.034;2022-11-20T05:30:42;3.45;;;1.60;;
7989;SDS011;4040;42.848;23.034;2022-11-20T05:36:30;3.00;;;1.80;;
7989;SDS011;4040;42.848;23.034;2022-11-20T05:42:19;7.72;;;3.17;;
7989;SDS011;4040;42.848;23.034;2022-11-20T05:48:21;3.33;;;2.47;;
7989;SDS011;4040;42.848;23.034;2022-11-20T05:54:10;3.15;;;1.60;;
7989;SDS011;4040;42.848;23.034;2022-11-20T05:59:59;4.85;;;2.28;;
7989;SDS011;4040;42.848;23.034;2022-11-20T06:05:49;4.95;;;2.15;;
7989;SDS011;4040;42.848;23.034;2022-11-20T06:11:37;4.25;;;2.28;;
7989;SDS011;4040;42.848;23.034;2022-11-20T06:17:26;7.03;;;1.80;;
7989;SDS011;4040;42.848;23.034;2022-11-20T06:23:16;3.42;;;1.70;;
7989;SDS011;4040;42.848;23.034;2022-11-20T06:33:26;3.72;;;2.38;;
7989;SDS011;4040;42.848;23.034;2022-11-20T06:39:17;9.33;;;3.50;;
7989;SDS011;4040;42.848;23.034;2022-11-20T06:45:25;4.10;;;1.20;;
7989;SDS011;4040;42.848;23.034;2022-11-20T06:51:13;6.57;;;3.23;;
7989;SDS011;4040;42.848;23.034;2022-11-20T06:57:03;7.30;;;3.50;;
7989;SDS011;4040;42.848;23.034;2022-11-20T07:02:52;4.65;;;2.90;;
7989;SDS011;4040;42.848;23.034;2022-11-20T07:08:40;5.07;;;3.20;;
7989;SDS011;4040;42.848;23.034;2022-11-20T07:14:30;3.63;;;2.87;;
7989;SDS011;4040;42.848;23.034;2022-11-20T07:20:19;12.40;;;5.87;;
7989;SDS011;4040;42.848;23.034;2022-11-20T07:26:08;3.33;;;2.60;;
7989;SDS011;4040;42.848;23.034;2022-11-20T07:36:02;7.43;;;6.70;;
7989;SDS011;4040;42.848;23.034;2022-11-20T07:41:50;4.63;;;4.07;;
7989;SDS011;4040;42.848;23.034;2022-11-20T07:47:39;8.87;;;5.07;;
7989;SDS011;4040;42.848;23.034;2022-11-20T07:53:29;4.90;;;4.40;;
7989;SDS011;4040;42.848;23.034;2022-11-20T07:59:17;10.60;;;4.60;;
7989;SDS011;4040;42.848;23.034;2022-11-20T08:05:06;5.47;;;4.10;;
7989;SDS011;4040;42.848;23.034;2022-11-20T08:10:57;6.47;;;4.83;;
7989;SDS011;4040;42.848;23.034;2022-11-20T08:17:08;4.03;;;2.77;;
7989;SDS011;4040;42.848;23.034;2022-11-20T08:22:59;6.30;;;4.27;;
7989;SDS011;4040;42.848;23.034;2022-11-20T08:28:52;5.13;;;3.40;;
7989;SDS011;4040;42.848;23.034;2022-11-20T08:39:04;12.40;;;7.90;;
7989;SDS011;4040;42.848;23.034;2022-11-20T08:44:54;15.00;;;10.40;;
7989;SDS011;4040;42.848;23.034;2022-11-20T08:50:43;21.17;;;15.60;;
7989;SDS011;4040;42.848;23.034;2022-11-20T08:56:31;13.07;;;10.37;;
7989;SDS011;4040;42.848;23.034;2022-11-20T09:02:21;105.00;;;63.20;;
7989;SDS011;4040;42.848;23.034;2022-11-20T09:08:10;29.47;;;20.67;;
7989;SDS011;4040;42.848;23.034;2022-11-20T09:13:59;41.97;;;22.43;;
7989;SDS011;4040;42.848;23.034;2022-11-20T09:19:50;23.80;;;16.87;;
7989;SDS011;4040;42.848;23.034;2022-11-20T09:25:39;20.57;;;13.57;;
7989;SDS011;4040;42.848;23.034;2022-11-20T09:31:27;17.13;;;9.77;;
7989;SDS011;4040;42.848;23.034;2022-11-20T09:41:53;39.43;;;16.77;;
7989;SDS011;4040;42.848;23.034;2022-11-20T09:47:58;6.10;;;4.50;;
7989;SDS011;4040;42.848;23.034;2022-11-20T09:54:03;9.27;;;5.65;;
7989;SDS011;4040;42.848;23.034;2022-11-20T10:00:04;9.88;;;5.50;;
7989;SDS011;4040;42.848;23.034;2022-11-20T10:05:54;4.35;;;2.65;;
7989;SDS011;4040;42.848;23.034;2022-11-20T10:11:46;13.70;;;6.47;;
7989;SDS011;4040;42.848;23.034;2022-11-20T10:24:26;16.90;;;9.02;;
7989;SDS011;4040;42.848;23.034;2022-11-20T10:30:31;11.23;;;4.70;;
7989;SDS011;4040;42.848;23.034;2022-11-20T10:36:27;6.40;;;3.75;;
7989;SDS011;4040;42.848;23.034;2022-11-20T10:42:22;14.90;;;6.18;;
7989;SDS011;4040;42.848;23.034;2022-11-20T10:48:20;4.97;;;2.92;;
7989;SDS011;4040;42.848;23.034;2022-11-20T10:54:16;26.85;;;11.02;;
7989;SDS011;4040;42.848;23.034;2022-11-20T11:00:10;30.90;;;12.00;;
7989;SDS011;4040;42.848;23.034;2022-11-20T11:06:02;29.42;;;13.13;;
7989;SDS011;4040;42.848;23.034;2022-11-20T11:12:02;9.80;;;4.57;;
7989;SDS011;4040;42.848;23.034;2022-11-20T11:17:55;5.28;;;2.70;;
7989;SDS011;4040;42.848;23.034;2022-11-20T11:23:44;6.68;;;3.28;;
7989;SDS011;4040;42.848;23.034;2022-11-20T11:29:34;6.23;;;3.70;;
7989;SDS011;4040;42.848;23.034;2022-11-20T11:35:24;8.23;;;4.40;;
7989;SDS011;4040;42.848;23.034;2022-11-20T11:41:15;2.40;;;1.40;;
7989;SDS011;4040;42.848;23.034;2022-11-20T11:47:11;3.60;;;1.83;;
7989;SDS011;4040;42.848;23.034;2022-11-20T11:53:12;3.37;;;1.30;;
7989;SDS011;4040;42.848;23.034;2022-11-20T11:59:04;6.60;;;4.13;;
7989;SDS011;4040;42.848;23.034;2022-11-20T12:05:02;5.43;;;3.37;;
7989;SDS011;4040;42.848;23.034;2022-11-20T12:10:58;9.07;;;5.70;;
7989;SDS011;4040;42.848;23.034;2022-11-20T12:16:52;5.00;;;3.80;;
7989;SDS011;4040;42.848;23.034;2022-11-20T12:22:47;12.43;;;7.50;;
7989;SDS011;4040;42.848;23.034;2022-11-20T12:28:48;24.50;;;11.40;;
7989;SDS011;4040;42.848;23.034;2022-11-20T12:34:45;6.80;;;3.13;;
7989;SDS011;4040;42.848;23.034;2022-11-20T12:51:23;7.63;;;3.17;;
7989;SDS011;4040;42.848;23.034;2022-11-20T12:57:20;6.40;;;3.90;;
7989;SDS011;4040;42.848;23.034;2022-11-20T13:03:16;5.73;;;4.03;;
7989;SDS011;4040;42.848;23.034;2022-11-20T13:09:19;12.33;;;4.23;;
7989;SDS011;4040;42.848;23.034;2022-11-20T13:15:14;10.77;;;7.13;;
7989;SDS011;4040;42.848;23.034;2022-11-20T13:21:17;10.03;;;6.67;;
7989;SDS011;4040;42.848;23.034;2022-11-20T13:27:19;15.03;;;7.13;;
7989;SDS011;4040;42.848;23.034;2022-11-20T13:33:22;13.50;;;7.33;;
7989;SDS011;4040;42.848;23.034;2022-11-20T13:39:23;13.47;;;7.90;;
7989;SDS011;4040;42.848;23.034;2022-11-20T13:45:21;18.70;;;8.23;;
7989;SDS011;4040;42.848;23.034;2022-11-20T13:51:15;25.33;;;14.17;;
7989;SDS011;4040;42.848;23.034;2022-11-20T13:57:22;10.50;;;5.50;;
7989;SDS011;4040;42.848;23.034;2022-11-20T14:00:09;9.50;;;7.00;;
7989;SDS011;4040;42.848;23.034;2022-11-20T14:06:01;4.50;;;3.27;;
7989;SDS011;4040;42.848;23.034;2022-11-20T14:11:51;6.47;;;2.60;;
7989;SDS011;4040;42.848;23.034;2022-11-20T15:34:53;22.90;;;10.00;;
7989;SDS011;4040;42.848;23.034;2022-11-20T15:44:04;21.33;;;10.97;;
7989;SDS011;4040;42.848;23.034;2022-11-20T15:49:53;11.10;;;6.63;;
7989;SDS011;4040;42.848;23.034;2022-11-20T15:55:42;14.13;;;9.97;;
7989;SDS011;4040;42.848;23.034;2022-11-20T16:01:33;49.83;;;19.33;;
7989;SDS011;4040;42.848;23.034;2022-11-20T16:07:22;34.90;;;16.83;;
7989;SDS011;4040;42.848;23.034;2022-11-20T16:13:14;31.80;;;19.93;;
7989;SDS011;4040;42.848;23.034;2022-11-20T16:19:22;24.20;;;14.30;;
7989;SDS011;4040;42.848;23.034;2022-11-20T16:25:11;59.87;;;33.43;;
7989;SDS011;4040;42.848;23.034;2022-11-20T16:31:07;42.03;;;27.90;;
7989;SDS011;4040;42.848;23.034;2022-11-20T16:36:58;75.63;;;41.50;;
7989;SDS011;4040;42.848;23.034;2022-11-20T16:46:58;25.77;;;14.97;;
7989;SDS011;4040;42.848;23.034;2022-11-20T16:52:48;17.80;;;8.17;;
7989;SDS011;4040;42.848;23.034;2022-11-20T16:58:37;6.10;;;3.37;;
7989;SDS011;4040;42.848;23.034;2022-11-20T17:04:25;3.83;;;2.00;;
7989;SDS011;4040;42.848;23.034;2022-11-20T17:10:15;5.27;;;3.10;;
7989;SDS011;4040;42.848;23.034;2022-11-20T17:16:04;9.97;;;6.30;;
7989;SDS011;4040;42.848;23.034;2022-11-20T17:21:54;7.73;;;3.87;;
7989;SDS011;4040;42.848;23.034;2022-11-20T17:27:44;8.53;;;2.87;;
7989;SDS011;4040;42.848;23.034;2022-11-20T17:33:33;3.30;;;2.67;;
7989;SDS011;4040;42.848;23.034;2022-11-20T17:39:23;10.57;;;6.43;;
7989;SDS011;4040;42.848;23.034;2022-11-20T17:49:16;4.20;;;3.10;;
7989;SDS011;4040;42.848;23.034;2022-11-20T17:55:05;4.30;;;3.40;;
7989;SDS011;4040;42.848;23.034;2022-11-20T18:00:55;4.33;;;3.03;;
7989;SDS011;4040;42.848;23.034;2022-11-20T18:06:52;5.67;;;2.73;;
7989;SDS011;4040;42.848;23.034;2022-11-20T18:12:40;9.83;;;5.63;;
7989;SDS011;4040;42.848;23.034;2022-11-20T18:18:30;9.57;;;6.20;;
7989;SDS011;4040;42.848;23.034;2022-11-20T18:24:20;3.63;;;3.17;;
7989;SDS011;4040;42.848;23.034;2022-11-20T18:30:09;7.50;;;3.93;;
7989;SDS011;4040;42.848;23.034;2022-11-20T18:36:07;3.40;;;1.90;;
7989;SDS011;4040;42.848;23.034;2022-11-20T18:41:58;10.97;;;5.40;;
7989;SDS011;4040;42.848;23.034;2022-11-20T18:52:26;9.17;;;4.90;;
7989;SDS011;4040;42.848;23.034;2022-11-20T18:58:18;11.27;;;6.57;;
7989;SDS011;4040;42.848;23.034;2022-11-20T19:04:07;14.53;;;8.40;;
7989;SDS011;4040;42.848;23.034;2022-11-20T19:09:56;14.77;;;9.17;;
7989;SDS011;4040;42.848;23.034;2022-11-20T19:15:46;14.97;;;10.87;;
7989;SDS011;4040;42.848;23.034;2022-11-20T19:21:34;18.00;;;11.60;;
7989;SDS011;4040;42.848;23.034;2022-11-20T19:27:23;18.60;;;13.13;;
7989;SDS011;4040;42.848;23.034;2022-11-20T19:33:14;25.67;;;15.10;;
7989;SDS011;4040;42.848;23.034;2022-11-20T19:39:04;24.10;;;14.27;;
7989;SDS011;4040;42.848;23.034;2022-11-20T19:44:54;17.70;;;12.23;;
7989;SDS011;4040;42.848;23.034;2022-11-20T19:55:07;22.80;;;14.77;;
7989;SDS011;4040;42.848;23.034;2022-11-20T20:00:56;25.27;;;15.93;;
7989;SDS011;4040;42.848;23.034;2022-11-20T20:06:53;19.27;;;13.87;;
7989;SDS011;4040;42.848;23.034;2022-11-20T20:12:43;20.97;;;13.73;;
7989;SDS011;4040;42.848;23.034;2022-11-20T20:18:32;21.20;;;13.90;;
7989;SDS011;4040;42.848;23.034;2022-11-20T20:24:20;17.50;;;11.70;;
7989;SDS011;4040;42.848;23.034;2022-11-20T20:30:11;15.37;;;11.33;;
7989;SDS011;4040;42.848;23.034;2022-11-20T20:36:00;20.47;;;13.57;;
7989;SDS011;4040;42.848;23.034;2022-11-20T20:41:49;15.93;;;11.70;;
7989;SDS011;4040;42.848;23.034;2022-11-20T20:47:39;21.13;;;12.63;;
7989;SDS011;4040;42.848;23.034;2022-11-20T20:57:50;18.37;;;11.47;;
7989;SDS011;4040;42.848;23.034;2022-11-20T21:03:42;20.60;;;11.30;;
7989;SDS011;4040;42.848;23.034;2022-11-20T21:09:31;15.37;;;9.00;;
7989;SDS011;4040;42.848;23.034;2022-11-20T21:15:20;12.07;;;8.80;;
7989;SDS011;4040;42.848;23.034;2022-11-20T21:21:11;15.63;;;9.70;;
7989;SDS011;4040;42.848;23.034;2022-11-20T21:27:18;16.10;;;12.27;;
7989;SDS011;4040;42.848;23.034;2022-11-20T21:33:07;17.20;;;11.63;;
7989;SDS011;4040;42.848;23.034;2022-11-20T21:38:57;15.03;;;10.73;;
7989;SDS011;4040;42.848;23.034;2022-11-20T21:44:46;12.70;;;8.73;;
7989;SDS011;4040;42.848;23.034;2022-11-20T21:50:34;9.83;;;7.07;;
7989;SDS011;4040;42.848;23.034;2022-11-20T22:00:47;9.43;;;6.17;;
7989;SDS011;4040;42.848;23.034;2022-11-20T22:06:35;5.30;;;3.93;;
7989;SDS011;4040;42.848;23.034;2022-11-20T22:12:24;5.13;;;3.30;;
7989;SDS011;4040;42.848;23.034;2022-11-20T22:18:14;6.33;;;4.10;;
7989;SDS011;4040;42.848;23.034;2022-11-20T22:24:03;6.57;;;4.13;;
7989;SDS011;4040;42.848;23.034;2022-11-20T22:29:52;3.97;;;3.37;;
7989;SDS011;4040;42.848;23.034;2022-11-20T22:35:42;4.27;;;3.10;;
7989;SDS011;4040;42.848;23.034;2022-11-20T22:41:31;6.80;;;4.23;;
7989;SDS011;4040;42.848;23.034;2022-11-20T22:47:20;6.77;;;4.17;;
7989;SDS011;4040;42.848;23.034;2022-11-20T22:53:10;5.07;;;4.23;;
7989;SDS011;4040;42.848;23.034;2022-11-20T23:08:31;7.37;;;6.23;;
7989;SDS011;4040;42.848;23.034;2022-11-20T23:14:20;8.20;;;6.43;;
7989;SDS011;4040;42.848;23.034;2022-11-20T23:20:09;10.30;;;6.23;;
7989;SDS011;4040;42.848;23.034;2022-11-20T23:26:00;9.10;;;6.80;;
7989;SDS011;4040;42.848;23.034;2022-11-20T23:31:49;11.70;;;7.77;;
7989;SDS011;4040;42.848;23.034;2022-11-20T23:37:38;13.73;;;9.50;;
7989;SDS011;4040;42.848;23.034;2022-11-20T23:43:28;12.87;;;7.23;;
7989;SDS011;4040;42.848;23.034;2022-11-20T23:49:17;8.50;;;6.83;;
7989;SDS011;4040;42.848;23.034;2022-11-20T23:55:06;11.73;;;7.80;;
